Time;durP1;ratioP1;P1;durP2;ratioP2;P2;SDS_P1;SDS_P2;PMS_P1;PMS_P2;Temp;Humidity;BMP_temperature;BMP_pressure;BME280_temperature;BME280_humidity;BME280_pressure;Samples;Min_cycle;Max_cycle;Signal;HPM_P1;HPM_P2
2021/12/06 00:00:16;;;;;;;11.63;7.37;;;3.90;99.90;;;;;;5033496;28;20203;-77
2021/12/06 00:02:43;;;;;;;10.47;6.77;;;3.90;99.90;;;;;;5034851;28;20622;-77
2021/12/06 00:05:10;;;;;;;8.97;7.00;;;3.90;99.90;;;;;;5033514;28;20650;-77
2021/12/06 00:07:38;;;;;;;10.80;6.80;;;3.90;99.90;;;;;;5034909;28;20204;-77
2021/12/06 00:10:05;;;;;;;7.67;6.27;;;3.90;99.90;;;;;;5034732;28;20196;-77
2021/12/06 00:12:31;;;;;;;11.77;7.13;;;3.90;99.90;;;;;;5035734;28;20251;-77
2021/12/06 00:14:56;;;;;;;9.93;7.43;;;3.90;99.90;;;;;;5033943;28;20275;-76
2021/12/06 00:17:22;;;;;;;9.90;7.30;;;3.90;99.90;;;;;;5033220;28;20527;-77
2021/12/06 00:19:47;;;;;;;8.43;6.53;;;3.90;99.90;;;;;;5034833;28;20211;-77
2021/12/06 00:22:22;;;;;;;9.13;7.03;;;3.90;99.90;;;;;;5034502;28;20540;-77
2021/12/06 00:24:52;;;;;;;8.57;7.10;;;3.90;99.90;;;;;;5033188;28;20238;-77
2021/12/06 00:27:17;;;;;;;10.80;8.13;;;3.90;99.90;;;;;;5034319;28;20173;-77
2021/12/06 00:29:44;;;;;;;11.73;7.97;;;3.90;99.90;;;;;;5034208;28;20253;-77
2021/12/06 00:32:10;;;;;;;9.23;7.70;;;3.90;99.90;;;;;;5033149;28;20226;-76
2021/12/06 00:34:37;;;;;;;10.23;6.77;;;3.90;99.90;;;;;;5034834;28;20207;-76
2021/12/06 00:37:23;;;;;;;12.47;7.83;;;3.90;99.90;;;;;;5033058;28;20250;-77
2021/12/06 00:40:00;;;;;;;10.00;7.60;;;3.90;99.90;;;;;;5034076;28;20189;-76
2021/12/06 00:42:34;;;;;;;11.90;8.07;;;3.90;99.90;;;;;;5034070;28;20216;-77
2021/12/06 00:45:02;;;;;;;9.73;6.93;;;3.90;99.90;;;;;;5032796;28;20172;-76
2021/12/06 00:47:28;;;;;;;10.53;6.97;;;3.90;99.90;;;;;;5033972;28;20311;-77
2021/12/06 00:49:54;;;;;;;10.43;6.90;;;3.80;99.90;;;;;;5033887;28;20267;-76
2021/12/06 00:52:20;;;;;;;11.50;7.50;;;3.80;99.90;;;;;;5033875;28;20540;-77
2021/12/06 00:54:47;;;;;;;8.97;7.10;;;3.80;99.90;;;;;;5033744;28;20204;-76
2021/12/06 00:57:14;;;;;;;9.50;7.27;;;3.80;99.90;;;;;;5033665;28;20203;-77
2021/12/06 00:59:40;;;;;;;9.17;7.20;;;3.80;99.90;;;;;;5033534;28;20207;-76
2021/12/06 01:02:08;;;;;;;8.87;6.93;;;3.80;99.90;;;;;;5033958;28;20584;-77
2021/12/06 01:04:36;;;;;;;9.87;7.83;;;3.80;99.90;;;;;;5033747;28;20172;-76
2021/12/06 01:07:04;;;;;;;8.50;6.63;;;3.80;99.90;;;;;;5033653;28;20171;-77
2021/12/06 01:09:30;;;;;;;9.13;6.67;;;3.80;99.90;;;;;;5032269;28;20202;-77
2021/12/06 01:11:56;;;;;;;10.00;6.83;;;3.70;99.90;;;;;;5032297;28;20275;-76
2021/12/06 01:14:21;;;;;;;9.37;7.43;;;3.80;99.90;;;;;;5033466;28;20649;-77
2021/12/06 01:16:47;;;;;;;8.50;7.27;;;3.80;99.90;;;;;;5032398;28;20242;-77
2021/12/06 01:19:13;;;;;;;13.27;7.37;;;3.70;99.90;;;;;;5033528;28;20188;-76
2021/12/06 01:21:52;;;;;;;9.77;7.30;;;3.70;99.90;;;;;;5033459;28;20168;-76
2021/12/06 01:24:25;;;;;;;9.10;7.23;;;3.70;99.90;;;;;;5033683;28;20195;-77
2021/12/06 01:32:24;;;;;;;7.90;6.60;;;3.60;99.90;;;;;;5033607;28;20214;-76
2021/12/06 01:40:21;;;;;;;9.47;6.97;;;3.50;99.90;;;;;;5033017;28;20274;-76
2021/12/06 01:42:47;;;;;;;10.40;6.83;;;3.40;99.90;;;;;;5033088;28;20168;-76
2021/12/06 01:45:12;;;;;;;9.77;7.50;;;3.40;99.90;;;;;;5032698;28;20306;-76
2021/12/06 01:47:40;;;;;;;11.13;7.83;;;3.40;99.90;;;;;;5032019;28;20230;-76
2021/12/06 01:50:11;;;;;;;13.20;8.60;;;3.40;99.90;;;;;;5032931;28;20227;-77
2021/12/06 01:52:41;;;;;;;13.33;7.83;;;3.30;99.90;;;;;;5033020;28;20160;-76
2021/12/06 01:55:09;;;;;;;15.63;7.97;;;3.30;99.90;;;;;;5031599;28;20192;-76
2021/12/06 01:57:35;;;;;;;12.53;7.80;;;3.30;99.90;;;;;;5031483;28;20860;-76
2021/12/06 02:00:03;;;;;;;9.20;7.03;;;3.30;99.90;;;;;;5032102;28;20246;-76
2021/12/06 02:02:30;;;;;;;12.00;7.27;;;3.20;99.90;;;;;;5031647;28;20231;-76
2021/12/06 02:04:55;;;;;;;8.80;7.10;;;3.20;99.90;;;;;;5032836;28;20204;-76
2021/12/06 02:07:24;;;;;;;11.53;7.90;;;3.20;99.90;;;;;;5032790;28;20254;-76
2021/12/06 02:09:54;;;;;;;8.57;7.57;;;3.10;99.90;;;;;;5032715;28;20207;-75
2021/12/06 02:12:20;;;;;;;12.57;8.13;;;3.10;99.90;;;;;;5031709;28;20598;-77
2021/12/06 02:15:00;;;;;;;11.83;8.13;;;3.10;99.90;;;;;;5032446;28;20208;-76
2021/12/06 02:17:31;;;;;;;10.93;8.10;;;3.10;99.90;;;;;;5032755;28;20167;-76
2021/12/06 02:20:04;;;;;;;14.67;7.77;;;3.00;99.90;;;;;;5032606;28;20211;-76
2021/12/06 02:22:33;;;;;;;13.00;8.23;;;3.00;99.90;;;;;;5032978;28;20149;-76
2021/12/06 02:25:00;;;;;;;10.13;7.60;;;3.00;99.90;;;;;;5032641;28;20187;-76
2021/12/06 02:27:27;;;;;;;9.77;7.47;;;2.90;99.90;;;;;;5032582;28;20176;-76
2021/12/06 02:29:56;;;;;;;11.93;7.97;;;2.90;99.90;;;;;;5030932;28;20200;-76
2021/12/06 02:32:23;;;;;;;8.57;6.93;;;2.80;99.90;;;;;;5031354;28;20593;-76
2021/12/06 02:34:54;;;;;;;11.63;8.10;;;2.80;99.90;;;;;;5031435;28;20698;-77
2021/12/06 02:37:24;;;;;;;12.17;6.93;;;2.80;99.90;;;;;;5032582;28;20176;-76
2021/12/06 02:39:51;;;;;;;12.13;7.07;;;2.70;99.90;;;;;;5034794;28;20203;-76
2021/12/06 02:42:17;;;;;;;13.50;7.50;;;2.80;99.90;;;;;;5036419;28;20164;-77
2021/12/06 02:44:46;;;;;;;8.20;7.13;;;2.70;99.90;;;;;;5035096;28;20238;-76
2021/12/06 02:47:13;;;;;;;10.80;7.60;;;2.70;99.90;;;;;;5036050;28;20234;-76
2021/12/06 02:49:39;;;;;;;9.83;7.20;;;2.70;99.90;;;;;;5036097;28;20197;-76
2021/12/06 02:52:06;;;;;;;10.07;7.33;;;2.70;99.90;;;;;;5036148;28;20528;-76
2021/12/06 02:54:34;;;;;;;9.63;7.33;;;2.60;99.90;;;;;;5035659;28;20178;-75
2021/12/06 02:59:41;;;;;;;11.40;7.97;;;2.70;99.90;;;;;;5016409;28;20212;-76
2021/12/06 03:02:12;;;;;;;9.87;7.10;;;2.60;99.90;;;;;;5035082;28;20180;-75
2021/12/06 03:04:40;;;;;;;10.60;7.37;;;2.60;99.90;;;;;;5034652;28;20179;-76
2021/12/06 03:07:06;;;;;;;9.67;7.37;;;2.60;99.90;;;;;;5035572;28;20187;-76
2021/12/06 03:09:34;;;;;;;8.37;6.57;;;2.60;99.90;;;;;;5034491;28;20287;-76
2021/12/06 03:12:04;;;;;;;12.00;7.07;;;2.60;99.90;;;;;;5035774;28;20234;-76
2021/12/06 03:14:35;;;;;;;12.73;6.57;;;2.50;99.90;;;;;;5035639;28;20172;-76
2021/12/06 03:17:03;;;;;;;10.67;7.30;;;2.50;99.90;;;;;;5035735;28;20615;-76
2021/12/06 03:19:29;;;;;;;10.37;6.50;;;2.50;99.90;;;;;;5034204;28;20199;-76
2021/12/06 03:21:55;;;;;;;10.43;7.07;;;2.50;99.90;;;;;;5034097;28;20180;-77
2021/12/06 03:24:22;;;;;;;8.63;6.67;;;2.40;99.90;;;;;;5034293;28;20184;-76
2021/12/06 03:26:48;;;;;;;8.67;6.53;;;2.30;99.90;;;;;;5035423;28;20547;-76
2021/12/06 03:29:14;;;;;;;8.73;6.70;;;2.30;99.90;;;;;;5035500;28;20562;-75
2021/12/06 03:31:40;;;;;;;9.87;7.10;;;2.30;99.90;;;;;;5034032;28;20275;-76
2021/12/06 03:34:07;;;;;;;11.00;7.27;;;2.20;99.90;;;;;;5035735;28;20168;-77
2021/12/06 03:36:37;;;;;;;10.10;7.10;;;2.20;99.90;;;;;;5035527;28;20200;-76
2021/12/06 03:39:06;;;;;;;7.03;6.03;;;2.10;99.90;;;;;;5034427;28;20207;-77
2021/12/06 03:41:32;;;;;;;10.47;7.00;;;2.00;99.90;;;;;;5034212;28;20540;-76
2021/12/06 03:43:59;;;;;;;8.10;6.70;;;2.00;99.90;;;;;;5035336;28;20199;-76
2021/12/06 03:46:27;;;;;;;10.10;7.17;;;1.90;99.90;;;;;;5035157;28;20179;-76
2021/12/06 03:48:52;;;;;;;9.73;6.47;;;1.80;99.90;;;;;;5033617;28;20287;-76
2021/12/06 03:51:19;;;;;;;9.93;6.47;;;1.80;99.90;;;;;;5035113;28;20615;-76
2021/12/06 03:53:45;;;;;;;10.47;7.47;;;1.70;99.90;;;;;;5033707;28;20177;-76
2021/12/06 03:56:13;;;;;;;8.57;6.80;;;1.70;99.90;;;;;;5034852;28;20195;-76
2021/12/06 03:58:39;;;;;;;8.43;6.70;;;1.70;99.90;;;;;;5034624;28;20247;-75
2021/12/06 04:01:06;;;;;;;13.03;7.00;;;1.70;99.90;;;;;;5033623;28;20217;-76
2021/12/06 04:03:35;;;;;;;8.90;6.63;;;1.60;99.90;;;;;;5034768;28;20169;-76
2021/12/06 04:06:02;;;;;;;8.73;6.67;;;1.50;99.90;;;;;;5034708;28;20172;-76
2021/12/06 04:08:27;;;;;;;9.17;6.20;;;1.50;99.90;;;;;;5033380;28;20177;-76
2021/12/06 04:10:55;;;;;;;7.83;6.27;;;1.50;99.90;;;;;;5033403;28;20186;-75
2021/12/06 04:13:21;;;;;;;7.93;5.97;;;1.40;99.90;;;;;;5034903;28;20175;-76
2021/12/06 04:15:46;;;;;;;11.03;6.70;;;1.40;99.90;;;;;;5034428;28;20287;-76
2021/12/06 04:18:12;;;;;;;8.00;6.00;;;1.30;99.90;;;;;;5033207;28;20231;-76
2021/12/06 04:20:38;;;;;;;10.10;6.53;;;1.30;99.90;;;;;;5033124;28;20192;-76
2021/12/06 04:23:08;;;;;;;9.00;6.47;;;1.30;99.90;;;;;;5034457;28;20317;-76
2021/12/06 04:25:34;;;;;;;9.37;7.33;;;1.20;99.90;;;;;;5034659;28;20181;-76
2021/12/06 04:28:05;;;;;;;8.63;6.50;;;1.10;99.90;;;;;;5033090;28;20644;-76
2021/12/06 04:30:31;;;;;;;11.73;7.43;;;1.20;99.90;;;;;;5034494;28;20203;-76
2021/12/06 04:32:57;;;;;;;10.40;6.93;;;1.10;99.90;;;;;;5034239;28;20183;-76
2021/12/06 04:35:23;;;;;;;10.00;7.23;;;1.10;99.90;;;;;;5034049;28;20203;-76
2021/12/06 04:37:49;;;;;;;8.60;7.50;;;1.10;99.90;;;;;;5034156;28;20172;-76
2021/12/06 04:40:15;;;;;;;9.93;7.07;;;1.10;99.90;;;;;;5032742;28;20589;-76
2021/12/06 04:42:41;;;;;;;11.97;7.43;;;1.10;99.90;;;;;;5034064;28;20221;-77
2021/12/06 04:45:08;;;;;;;10.77;7.27;;;1.00;99.90;;;;;;5034367;28;20175;-76
2021/12/06 04:47:34;;;;;;;9.10;7.13;;;1.00;99.90;;;;;;5033931;28;20183;-76
2021/12/06 04:49:59;;;;;;;8.27;6.80;;;0.90;99.90;;;;;;5033805;28;20206;-76
2021/12/06 04:52:26;;;;;;;8.80;6.67;;;0.90;99.90;;;;;;5033796;28;20191;-76
2021/12/06 04:54:55;;;;;;;12.57;7.70;;;0.90;99.90;;;;;;5033974;28;20611;-76
2021/12/06 04:57:27;;;;;;;10.07;7.87;;;0.90;99.90;;;;;;5033670;28;20202;-76
2021/12/06 05:02:32;;;;;;;13.23;8.23;;;0.80;99.90;;;;;;5072394;23;20647;-76
2021/12/06 05:05:01;;;;;;;11.37;8.20;;;0.80;99.90;;;;;;5053659;28;20658;-76
2021/12/06 05:07:32;;;;;;;11.70;7.93;;;0.80;99.90;;;;;;5053609;28;20177;-77
2021/12/06 05:09:58;;;;;;;8.60;6.83;;;0.70;99.90;;;;;;5054043;28;20168;-76
2021/12/06 05:12:27;;;;;;;9.93;7.70;;;0.80;99.90;;;;;;5052123;28;20289;-76
2021/12/06 05:14:54;;;;;;;9.70;6.97;;;0.80;99.90;;;;;;5052318;28;20198;-76
2021/12/06 05:17:20;;;;;;;15.17;7.50;;;0.70;99.90;;;;;;5053541;28;20232;-77
2021/12/06 05:19:46;;;;;;;10.20;6.83;;;0.70;99.90;;;;;;5053390;28;20265;-77
2021/12/06 05:22:12;;;;;;;10.03;7.37;;;0.70;99.90;;;;;;5053185;28;20321;-77
2021/12/06 05:24:38;;;;;;;11.80;7.90;;;0.70;99.90;;;;;;5053245;28;20291;-77
2021/12/06 05:27:05;;;;;;;10.47;7.73;;;0.70;99.90;;;;;;5053127;28;20268;-77
2021/12/06 05:29:33;;;;;;;9.60;7.63;;;0.70;99.90;;;;;;5051926;28;20173;-77
2021/12/06 05:32:00;;;;;;;10.97;7.80;;;0.60;99.90;;;;;;5053112;28;20320;-76
2021/12/06 05:34:39;;;;;;;12.23;8.90;;;0.70;99.90;;;;;;5053364;28;20666;-76
2021/12/06 05:37:11;;;;;;;12.80;8.17;;;0.60;99.90;;;;;;5053140;28;20196;-77
2021/12/06 05:39:37;;;;;;;13.10;8.83;;;0.60;99.90;;;;;;5053108;28;20177;-76
2021/12/06 05:42:09;;;;;;;10.73;8.60;;;0.60;99.90;;;;;;5051698;28;20198;-77
2021/12/06 05:44:36;;;;;;;11.60;8.57;;;0.50;99.90;;;;;;5053043;28;20496;-76
2021/12/06 05:47:02;;;;;;;13.90;8.00;;;0.50;99.90;;;;;;5051662;28;20715;-76
2021/12/06 05:49:28;;;;;;;10.57;7.93;;;0.50;99.90;;;;;;5052903;28;20178;-76
2021/12/06 05:51:54;;;;;;;14.03;8.50;;;0.40;99.90;;;;;;5052759;28;20191;-77
2021/12/06 05:54:20;;;;;;;11.23;8.10;;;0.40;99.90;;;;;;5053140;28;20183;-76
2021/12/06 05:56:47;;;;;;;11.50;8.00;;;0.40;99.90;;;;;;5052841;28;20179;-76
2021/12/06 05:59:14;;;;;;;14.80;9.10;;;0.40;99.90;;;;;;5053328;28;20240;-76
2021/12/06 06:01:39;;;;;;;12.23;9.03;;;0.40;99.90;;;;;;5052678;28;20684;-76
2021/12/06 06:04:05;;;;;;;12.17;8.53;;;0.40;99.90;;;;;;5052757;28;20185;-77
2021/12/06 06:06:33;;;;;;;12.70;8.80;;;0.40;99.90;;;;;;5052750;28;20198;-77
2021/12/06 06:08:59;;;;;;;11.57;8.63;;;0.40;99.90;;;;;;5051477;28;20272;-76
2021/12/06 06:11:25;;;;;;;14.03;8.77;;;0.40;99.90;;;;;;5051633;28;20750;-76
2021/12/06 06:13:52;;;;;;;11.37;8.23;;;0.40;99.90;;;;;;5053491;28;20186;-76
2021/12/06 06:16:20;;;;;;;11.40;9.13;;;0.40;99.90;;;;;;5056723;28;20325;-76
2021/12/06 06:18:48;;;;;;;10.93;9.03;;;0.40;99.90;;;;;;5055349;28;20172;-77
2021/12/06 06:21:13;;;;;;;10.93;8.10;;;0.40;99.90;;;;;;5056659;28;20199;-77
2021/12/06 06:23:39;;;;;;;12.30;8.80;;;0.40;99.90;;;;;;5056899;28;20174;-77
2021/12/06 06:26:05;;;;;;;12.60;9.03;;;0.40;99.90;;;;;;5055300;28;20229;-76
2021/12/06 06:28:30;;;;;;;13.30;9.87;;;0.50;99.90;;;;;;5055292;28;20273;-75
2021/12/06 06:30:56;;;;;;;13.57;8.77;;;0.50;99.90;;;;;;5056592;28;20214;-75
2021/12/06 06:33:23;;;;;;;10.27;8.37;;;0.40;99.90;;;;;;5055188;28;20186;-75
2021/12/06 06:35:49;;;;;;;13.13;8.80;;;0.40;99.90;;;;;;5056317;28;20213;-76
2021/12/06 06:38:15;;;;;;;10.77;8.50;;;0.50;99.90;;;;;;5056443;28;20544;-75
2021/12/06 06:40:41;;;;;;;10.33;8.93;;;0.40;99.90;;;;;;5056306;28;20198;-75
2021/12/06 06:43:07;;;;;;;13.80;8.50;;;0.40;99.90;;;;;;5056327;28;20175;-76
2021/12/06 06:45:33;;;;;;;11.10;8.50;;;0.40;99.90;;;;;;5056221;28;20209;-76
2021/12/06 06:47:59;;;;;;;10.87;8.50;;;0.40;99.90;;;;;;5056760;28;20210;-75
2021/12/06 06:50:25;;;;;;;12.00;8.37;;;0.40;99.90;;;;;;5056069;28;20612;-75
2021/12/06 06:52:51;;;;;;;9.90;8.20;;;0.40;99.90;;;;;;5056138;28;20178;-75
2021/12/06 06:55:17;;;;;;;11.87;8.83;;;0.40;99.90;;;;;;5056004;28;20202;-75
2021/12/06 06:57:45;;;;;;;11.03;8.23;;;0.30;99.90;;;;;;5054751;28;20210;-74
2021/12/06 07:00:16;;;;;;;11.63;8.43;;;0.30;99.90;;;;;;5055776;28;20266;-75
2021/12/06 07:02:43;;;;;;;9.83;7.83;;;0.30;99.90;;;;;;5056040;28;20269;-75
2021/12/06 07:05:09;;;;;;;11.03;8.47;;;0.30;99.90;;;;;;5054618;28;20277;-75
2021/12/06 07:07:35;;;;;;;9.13;7.83;;;0.30;99.90;;;;;;5054445;28;20179;-75
2021/12/06 07:10:01;;;;;;;10.17;7.60;;;0.20;99.90;;;;;;5054467;28;20187;-75
2021/12/06 07:12:27;;;;;;;12.53;8.53;;;0.20;99.90;;;;;;5054427;28;20187;-75
2021/12/06 07:14:53;;;;;;;13.30;8.30;;;0.20;99.90;;;;;;5054336;28;20698;-75
2021/12/06 07:17:18;;;;;;;9.23;8.10;;;0.20;99.90;;;;;;5055584;28;20207;-75
2021/12/06 07:19:45;;;;;;;13.83;7.70;;;0.20;99.90;;;;;;5055543;28;20175;-75
2021/12/06 07:22:11;;;;;;;10.53;8.77;;;0.20;99.90;;;;;;5055495;28;20680;-75
2021/12/06 07:24:37;;;;;;;15.13;8.90;;;0.20;99.90;;;;;;5055175;28;20518;-75
2021/12/06 07:27:04;;;;;;;10.77;7.83;;;0.20;99.90;;;;;;5055486;28;20186;-76
2021/12/06 07:29:33;;;;;;;12.00;8.87;;;0.10;99.90;;;;;;5055682;28;20647;-75
2021/12/06 07:32:00;;;;;;;9.77;8.33;;;0.00;99.90;;;;;;5055592;28;20595;-75
2021/12/06 07:34:26;;;;;;;10.83;8.00;;;0.00;99.90;;;;;;5055219;28;20716;-76
2021/12/06 07:36:51;;;;;;;10.90;8.17;;;0.00;99.90;;;;;;5055340;28;20258;-76
2021/12/06 07:39:18;;;;;;;9.93;7.37;;;0.00;99.90;;;;;;5055211;28;20198;-76
2021/12/06 07:41:43;;;;;;;9.70;7.03;;;0.00;99.90;;;;;;5055030;28;20702;-76
2021/12/06 07:44:09;;;;;;;8.73;7.20;;;0.10;99.90;;;;;;5053834;28;20182;-75
2021/12/06 07:46:35;;;;;;;11.17;7.10;;;0.00;99.90;;;;;;5055051;28;20178;-76
2021/12/06 07:49:01;;;;;;;9.00;6.90;;;0.00;99.90;;;;;;5055112;28;20553;-76
2021/12/06 07:51:28;;;;;;;12.70;7.63;;;0.00;99.90;;;;;;5055464;28;20230;-76
2021/12/06 07:53:54;;;;;;;11.37;7.17;;;0.00;99.90;;;;;;5053379;28;20593;-75
2021/12/06 07:56:21;;;;;;;12.03;7.83;;;0.00;99.90;;;;;;5055348;28;20545;-78
2021/12/06 07:58:47;;;;;;;10.73;7.60;;;0.00;99.90;;;;;;5053574;28;20182;-76
2021/12/06 08:01:14;;;;;;;11.23;8.10;;;0.00;99.90;;;;;;5054651;28;20213;-75
2021/12/06 08:03:41;;;;;;;10.87;7.83;;;0.00;99.90;;;;;;5054788;28;20520;-76
2021/12/06 08:06:08;;;;;;;13.83;7.77;;;0.00;99.90;;;;;;5053488;28;20267;-76
2021/12/06 08:08:37;;;;;;;10.60;8.03;;;0.00;99.90;;;;;;5053423;28;20277;-76
2021/12/06 08:11:10;;;;;;;10.27;7.53;;;0.00;99.90;;;;;;5054866;28;20199;-76
2021/12/06 08:13:37;;;;;;;9.53;7.33;;;0.00;99.90;;;;;;5054889;28;20166;-75
2021/12/06 08:16:09;;;;;;;12.80;8.17;;;0.00;99.90;;;;;;5054455;28;20191;-76
2021/12/06 08:18:35;;;;;;;13.43;8.90;;;0.00;99.90;;;;;;5054813;28;20181;-76
2021/12/06 08:21:03;;;;;;;9.70;7.23;;;0.00;99.90;;;;;;5054346;28;20256;-76
2021/12/06 08:23:29;;;;;;;9.03;7.43;;;0.00;99.90;;;;;;5053712;28;20179;-76
2021/12/06 08:25:55;;;;;;;10.30;7.40;;;0.00;99.90;;;;;;5054353;28;20656;-76
2021/12/06 08:28:23;;;;;;;10.10;7.63;;;0.00;99.90;;;;;;5054300;28;20192;-76
2021/12/06 08:30:50;;;;;;;14.80;8.13;;;0.00;99.90;;;;;;5054272;28;20195;-76
2021/12/06 08:33:15;;;;;;;12.17;7.43;;;0.00;99.90;;;;;;5054160;28;20183;-76
2021/12/06 08:35:45;;;;;;;15.43;9.00;;;0.00;99.90;;;;;;5053306;28;20193;-76
2021/12/06 08:38:13;;;;;;;9.97;8.03;;;0.10;99.90;;;;;;5054195;28;20264;-76
2021/12/06 08:40:40;;;;;;;13.30;8.03;;;0.10;99.90;;;;;;5054230;28;20236;-76
2021/12/06 08:43:06;;;;;;;11.90;7.53;;;0.20;99.90;;;;;;5054050;28;20175;-76
2021/12/06 08:45:33;;;;;;;12.20;7.67;;;0.20;99.90;;;;;;5054348;28;20625;-76
2021/12/06 08:47:59;;;;;;;12.73;8.27;;;0.20;99.90;;;;;;5052601;28;20215;-76
2021/12/06 08:50:27;;;;;;;11.83;8.10;;;0.20;99.90;;;;;;5053788;28;20275;-76
2021/12/06 08:52:54;;;;;;;11.90;8.90;;;0.20;99.90;;;;;;5053814;28;20265;-76
2021/12/06 08:55:21;;;;;;;12.10;8.20;;;0.30;99.90;;;;;;5053718;28;20202;-76
2021/12/06 08:57:47;;;;;;;12.77;8.80;;;0.30;99.90;;;;;;5053741;28;20181;-76
2021/12/06 09:00:17;;;;;;;17.60;9.23;;;0.30;99.90;;;;;;5053511;28;20174;-76
2021/12/06 09:02:43;;;;;;;14.90;8.97;;;0.40;99.90;;;;;;5052412;28;20170;-76
2021/12/06 09:05:09;;;;;;;12.60;8.57;;;0.40;99.90;;;;;;5052300;28;20194;-76
2021/12/06 09:07:35;;;;;;;14.13;8.50;;;0.40;99.90;;;;;;5052272;28;20179;-76
2021/12/06 09:10:02;;;;;;;13.83;8.80;;;0.40;99.90;;;;;;5053498;28;20175;-76
2021/12/06 09:12:31;;;;;;;11.23;8.90;;;0.40;99.90;;;;;;5053520;28;20263;-76
2021/12/06 09:14:59;;;;;;;13.27;9.07;;;0.50;99.90;;;;;;5053397;28;20633;-76
2021/12/06 09:17:26;;;;;;;15.50;8.60;;;0.50;99.90;;;;;;5052279;28;20632;-77
2021/12/06 09:19:51;;;;;;;13.53;9.40;;;0.50;99.90;;;;;;5052049;28;20175;-76
2021/12/06 09:22:18;;;;;;;12.37;9.27;;;0.60;99.90;;;;;;5053261;28;20612;-76
2021/12/06 09:24:45;;;;;;;14.47;8.77;;;0.60;99.90;;;;;;5053257;28;20175;-76
2021/12/06 09:27:11;;;;;;;11.83;8.60;;;0.60;99.90;;;;;;5053157;28;20651;-76
2021/12/06 09:29:38;;;;;;;11.43;8.47;;;0.70;99.90;;;;;;5053495;28;20252;-76
2021/12/06 09:32:07;;;;;;;12.33;9.03;;;0.70;99.90;;;;;;5053134;28;20202;-76
2021/12/06 09:34:34;;;;;;;10.43;8.70;;;0.80;99.90;;;;;;5053009;28;20240;-77
2021/12/06 09:37:00;;;;;;;15.20;9.47;;;0.80;99.90;;;;;;5051804;28;20636;-77
2021/12/06 09:39:27;;;;;;;14.47;9.30;;;0.90;99.90;;;;;;5051789;28;20561;-76
2021/12/06 09:41:53;;;;;;;12.50;9.30;;;0.90;99.90;;;;;;5052946;28;20193;-76
2021/12/06 09:44:19;;;;;;;13.90;9.87;;;1.00;99.90;;;;;;5053022;28;20189;-76
2021/12/06 09:46:46;;;;;;;15.13;10.63;;;1.10;99.90;;;;;;5052773;28;20179;-77
2021/12/06 09:49:19;;;;;;;15.17;9.57;;;1.20;99.90;;;;;;5053108;28;20183;-76
2021/12/06 09:51:51;;;;;;;15.70;11.17;;;1.20;99.90;;;;;;5052969;28;20194;-76
2021/12/06 09:54:21;;;;;;;18.27;11.50;;;1.40;99.90;;;;;;5051670;28;20172;-76
2021/12/06 09:56:48;;;;;;;15.60;10.60;;;1.50;99.90;;;;;;5052869;28;20263;-76
2021/12/06 09:59:18;;;;;;;18.10;12.07;;;1.50;99.90;;;;;;5052873;28;20171;-76
2021/12/06 10:01:59;;;;;;;20.37;11.70;;;1.60;99.90;;;;;;5051390;28;20215;-75
2021/12/06 10:04:29;;;;;;;16.17;12.40;;;1.70;99.90;;;;;;5052800;28;20170;-76
2021/12/06 10:06:56;;;;;;;18.43;12.73;;;1.80;99.90;;;;;;5052012;28;20545;-76
2021/12/06 10:09:23;;;;;;;21.57;14.60;;;1.90;99.90;;;;;;5052713;28;20233;-76
2021/12/06 10:11:49;;;;;;;22.00;13.30;;;1.90;99.90;;;;;;5052726;28;20207;-76
2021/12/06 10:14:15;;;;;;;21.80;14.03;;;2.10;99.90;;;;;;5052727;28;20171;-76
2021/12/06 10:16:42;;;;;;;23.27;14.30;;;2.10;99.90;;;;;;5051331;28;20202;-74
2021/12/06 10:19:08;;;;;;;25.97;15.13;;;2.20;99.90;;;;;;5051367;28;20660;-75
2021/12/06 10:21:37;;;;;;;20.63;13.70;;;2.20;99.90;;;;;;5052852;28;20187;-75
2021/12/06 10:24:07;;;;;;;18.83;13.63;;;2.20;99.90;;;;;;5051361;28;20610;-75
2021/12/06 10:26:32;;;;;;;24.77;15.20;;;2.30;99.90;;;;;;5052594;28;20641;-75
2021/12/06 10:29:20;;;;;;;24.27;15.30;;;2.30;99.90;;;;;;5052817;28;20186;-75
2021/12/06 10:31:47;;;;;;;25.70;16.90;;;2.40;99.90;;;;;;5052811;28;20196;-75
2021/12/06 10:34:24;;;;;;;25.57;16.93;;;2.40;99.90;;;;;;5052493;28;20234;-76
2021/12/06 10:36:51;;;;;;;31.70;18.53;;;2.50;99.90;;;;;;5051174;28;20192;-74
2021/12/06 10:39:16;;;;;;;32.03;20.60;;;2.60;99.90;;;;;;5052481;28;20233;-75
2021/12/06 10:41:42;;;;;;;34.97;22.27;;;2.60;99.90;;;;;;5051099;28;20282;-75
2021/12/06 10:44:10;;;;;;;39.67;24.07;;;2.70;99.90;;;;;;5052437;28;20209;-75
2021/12/06 10:46:39;;;;;;;43.23;24.90;;;2.80;99.90;;;;;;5052396;28;20187;-75
2021/12/06 10:49:08;;;;;;;45.43;27.97;;;2.80;99.90;;;;;;5052341;28;20283;-75
2021/12/06 10:51:34;;;;;;;61.27;32.40;;;2.90;99.90;;;;;;5052239;28;20199;-75
2021/12/06 10:54:07;;;;;;;63.20;31.73;;;3.00;99.90;;;;;;5052584;28;20186;-76
2021/12/06 10:56:41;;;;;;;72.33;32.67;;;3.00;99.90;;;;;;5052649;28;20219;-75
2021/12/06 10:59:16;;;;;;;61.97;32.03;;;3.00;99.90;;;;;;5053019;28;20159;-75
2021/12/06 11:01:42;;;;;;;64.40;33.20;;;3.00;99.90;;;;;;5056837;28;20723;-75
2021/12/06 11:04:10;;;;;;;60.00;31.40;;;3.00;99.90;;;;;;5057497;28;20610;-75
2021/12/06 11:06:44;;;;;;;63.20;30.80;;;3.10;99.90;;;;;;5056509;28;20207;-75
2021/12/06 11:09:12;;;;;;;63.00;31.63;;;3.10;99.90;;;;;;5057539;28;20572;-74
2021/12/06 11:11:49;;;;;;;55.10;30.50;;;3.10;99.90;;;;;;5057644;28;20195;-74
2021/12/06 11:14:23;;;;;;;62.63;32.73;;;3.20;99.90;;;;;;5058472;28;20160;-75
2021/12/06 11:17:01;;;;;;;58.53;32.67;;;3.20;99.90;;;;;;5057967;28;20198;-75
2021/12/06 11:19:31;;;;;;;58.87;30.77;;;3.20;99.90;;;;;;5058005;28;20225;-75
2021/12/06 11:22:02;;;;;;;57.70;30.90;;;3.20;99.90;;;;;;5056031;28;20580;-75
2021/12/06 11:24:39;;;;;;;60.70;30.77;;;3.20;99.90;;;;;;5057486;28;20172;-75
2021/12/06 11:27:22;;;;;;;57.10;29.87;;;3.20;99.90;;;;;;5055955;28;20625;-75
2021/12/06 11:29:52;;;;;;;73.53;32.27;;;3.20;99.90;;;;;;5057243;28;20156;-75
2021/12/06 11:32:27;;;;;;;58.97;30.40;;;3.30;99.90;;;;;;5057209;28;20209;-75
2021/12/06 11:34:55;;;;;;;67.07;33.13;;;3.30;99.90;;;;;;5055331;28;20175;-75
2021/12/06 11:37:24;;;;;;;65.77;32.40;;;3.40;99.90;;;;;;5055248;28;20176;-75
2021/12/06 11:40:17;;;;;;;62.07;33.40;;;3.40;99.90;;;;;;5055217;28;20174;-75
2021/12/06 11:42:50;;;;;;;64.87;32.30;;;3.50;99.90;;;;;;5055045;28;20194;-75
2021/12/06 11:45:30;;;;;;;68.03;34.10;;;3.50;99.90;;;;;;5054938;28;20596;-75
2021/12/06 11:48:11;;;;;;;74.07;34.33;;;3.60;99.90;;;;;;5054992;28;20168;-75
2021/12/06 11:50:58;;;;;;;75.37;37.17;;;3.60;99.90;;;;;;5056254;28;20731;-75
2021/12/06 11:53:28;;;;;;;70.10;34.43;;;3.70;99.90;;;;;;5055904;28;20673;-75
2021/12/06 11:56:19;;;;;;;74.13;35.40;;;3.60;99.90;;;;;;5054199;28;20716;-75
2021/12/06 11:58:51;;;;;;;78.43;35.63;;;3.70;99.90;;;;;;5048761;28;20270;-75
2021/12/06 12:01:33;;;;;;;69.97;35.57;;;3.70;99.90;;;;;;5056046;28;20225;-75
2021/12/06 12:04:12;;;;;;;76.77;34.73;;;3.70;99.90;;;;;;5057210;28;20187;-75
2021/12/06 12:06:40;;;;;;;71.60;34.47;;;3.80;99.90;;;;;;5055372;28;20603;-75
2021/12/06 12:09:22;;;;;;;71.57;35.57;;;3.80;99.90;;;;;;5056325;28;20178;-75
2021/12/06 12:12:08;;;;;;;74.93;35.20;;;3.80;99.90;;;;;;5053420;28;20203;-75
2021/12/06 12:14:42;;;;;;;68.97;33.70;;;3.80;99.90;;;;;;5055161;28;20180;-75
2021/12/06 12:17:15;;;;;;;64.60;33.17;;;3.80;99.90;;;;;;5054782;28;20653;-75
2021/12/06 12:19:42;;;;;;;63.70;31.83;;;3.80;99.90;;;;;;5055506;28;20629;-76
2021/12/06 12:22:11;;;;;;;65.67;33.57;;;3.80;99.90;;;;;;5055309;28;20222;-76
2021/12/06 12:24:41;;;;;;;70.73;34.43;;;3.80;99.90;;;;;;5055713;28;20179;-76
2021/12/06 12:27:22;;;;;;;61.97;32.07;;;3.80;99.90;;;;;;5055345;28;20317;-75
2021/12/06 12:29:49;;;;;;;64.17;32.70;;;3.80;99.90;;;;;;5055984;28;20661;-75
2021/12/06 12:32:16;;;;;;;68.47;32.80;;;3.80;99.90;;;;;;5055646;28;20297;-75
2021/12/06 12:34:46;;;;;;;60.60;30.77;;;3.90;99.90;;;;;;5056012;28;20187;-76
2021/12/06 12:37:14;;;;;;;62.33;31.87;;;3.90;99.90;;;;;;5055690;28;20168;-75
2021/12/06 12:39:40;;;;;;;57.67;29.30;;;3.90;99.90;;;;;;5054672;28;20172;-75
2021/12/06 12:42:08;;;;;;;52.33;28.23;;;3.90;99.90;;;;;;5054587;28;20731;-76
2021/12/06 12:44:47;;;;;;;55.57;28.67;;;3.90;99.90;;;;;;5054997;28;20720;-75
2021/12/06 12:47:19;;;;;;;55.00;27.53;;;3.90;99.90;;;;;;5055586;28;20155;-75
2021/12/06 12:49:48;;;;;;;49.17;24.70;;;4.00;99.90;;;;;;5054592;28;20186;-75
2021/12/06 12:52:14;;;;;;;53.03;27.10;;;4.00;99.90;;;;;;5056616;28;20192;-75
2021/12/06 12:54:44;;;;;;;56.40;28.93;;;4.00;99.90;;;;;;5056166;28;20586;-76
2021/12/06 12:57:14;;;;;;;58.47;29.97;;;4.00;99.90;;;;;;5055791;28;20198;-77
2021/12/06 12:59:52;;;;;;;60.90;31.57;;;4.00;99.90;;;;;;5055699;28;20176;-75
2021/12/06 13:02:34;;;;;;;60.00;30.80;;;4.00;99.90;;;;;;5056286;28;20202;-76
2021/12/06 13:04:59;;;;;;;56.43;29.97;;;4.00;99.90;;;;;;5056497;28;20171;-75
2021/12/06 13:07:47;;;;;;;59.03;30.40;;;3.80;99.90;;;;;;5054847;28;20225;-77